Detalii statie SCHWAB AGRO ARDUD [00001CF5]

Toti senzorii

Date Temperatura solului [C]Precipitatii [mm]Voltaj baterie [mV]Leaf Wetness [Min]HC Air temperature [C]HC Relative humidity [%]Punctul de roua [C]
medieminmaxsumaultimatimpmedieminmaxmediemediemin
2017-06-25 06:00:00 0 6748 19.26 18 20.85 100 19.2 18
2017-06-25 07:00:00 0 6756 20.45 19.93 21.22 100 20.4 19.9
2017-06-25 08:00:00 0 6766 21.52 20.04 22.93 99.45 21.3 20
2017-06-25 09:00:00 0 6756 24.21 23.56 25.33 90.04 22.3 21.8
2017-06-25 10:00:00 0 6766 23.47 23.08 24.34 91.89 21.9 21.2
2017-06-25 11:00:00 0.6 6766 22.07 21.09 23.92 99.27 21.8 21
2017-06-25 12:00:00 0 6776 21.9 21.45 22.65 100 21.8 21.4
2017-06-25 13:00:00 0 6786 27.13 23.55 29.62 93.02 25.7 23.5
2017-06-25 14:00:00 0 6786 29.25 27.66 31.91 80.43 25.3 24
2017-06-25 15:00:00 0 6776 30.38 28.21 31.5 79.96 26.3 25.4
2017-06-25 16:00:00 5 6786 22.8 19.84 27.4 97.84 22.3 19.8
2017-06-25 17:00:00 0 6776 21.73 21.16 22.38 100 21.6 21.1
2017-06-25 18:00:00 0 6776 23.17 22.42 23.84 100 23.1 22.4
2017-06-25 19:00:00 0 6766 24.01 23.22 24.48 100 23.9 23.2
2017-06-25 20:00:00 0 6766 22.44 21.54 23.05 100 22.4 21.5
2017-06-25 21:00:00 0 6766 20.69 19.99 21.5 100 20.6 19.9
2017-06-25 22:00:00 0 6766 20.03 19.67 20.43 100 19.9 19.6
2017-06-25 23:00:00 0 6756 20.88 20.57 21.15 100 20.8 20.5
2017-06-26 00:00:00 1 6756 20.38 19.94 20.75 100 20.3 19.9
2017-06-26 01:00:00 0.2 6756 19.5 19.19 19.92 100 19.4 19.1
2017-06-26 02:00:00 7 6756 19.04 18.47 19.68 100 18.9 18.4
2017-06-26 03:00:00 3 6756 18.32 18.1 18.47 100 18.2 18.1
2017-06-26 04:00:00 0 6748 18.18 18.01 18.28 100 18.1 18
2017-06-26 05:00:00 0 6748 18.16 18.08 18.23 100 18.1 18
2017-06-26 06:00:00 0 6748 18.26 18.13 18.5 100 18.2 18.1
2017-06-26 07:00:00 0 6756 19.08 18.49 19.68 100 19 18.4
2017-06-26 08:00:00 0 6748 20.52 19.42 21.84 100 20.4 19.4
2017-06-26 09:00:00 0 6766 21.77 20.67 23.39 100 21.7 20.6
2017-06-26 10:00:00 0 6776 24.44 22.62 25.83 100 24.4 22.6
2017-06-26 11:00:00 0 6776 25.87 24.54 26.86 99.39 25.7 24.5
2017-06-26 12:00:00 0 6786 26.84 25.55 27.69 94.27 25.7 24.1
2017-06-26 13:00:00 0 6806 27.07 25.45 28.27 94.02 25.8 24.7
2017-06-26 14:00:00 0 6816 27.59 26.5 28.72 88.89 25.4 24.5
2017-06-26 15:00:00 0.6 6816 24.73 22.51 29.15 96.82 24 22.5
2017-06-26 16:00:00 0 6806 26.13 24.65 27.13 100 26.1 24.6
2017-06-26 17:00:00 0 6806 26.14 25.19 27.8 96.12 25.3 24.5
2017-06-26 18:00:00 0 6806 25.3 24.82 26.08 97.37 24.7 24.1
2017-06-26 19:00:00 0 6786 24.82 24.36 25.31 98.1 24.4 24.2
2017-06-26 20:00:00 0 6766 22.74 21.27 24.32 100 22.6 21.2
2017-06-26 21:00:00 0 6766 20.53 19.89 21.37 100 20.4 19.8
2017-06-26 22:00:00 0 6776 19.62 19.32 19.92 100 19.5 19.3
2017-06-26 23:00:00 0 6766 18.82 18.09 19.4 100 18.7 18
2017-06-27 00:00:00 0 6766 17.92 17.56 18.51 100 17.8 17.5
2017-06-27 01:00:00 0 6766 17.76 17.53 18.07 100 17.7 17.5
2017-06-27 02:00:00 0 6756 17.62 17.29 18 100 17.5 17.2
2017-06-27 03:00:00 0 6756 16.82 16.59 17.23 100 16.7 16.5
2017-06-27 04:00:00 0.2 6756 16.02 15.67 16.46 100 15.9 15.6
2017-06-27 05:00:00 0 6748 15.56 15.38 15.79 100 15.5 15.3